Time;durP1;ratioP1;P1;durP2;ratioP2;P2;SDS_P1;SDS_P2;PMS_P1;PMS_P2;Temp;Humidity;BMP_temperature;BMP_pressure;BME280_temperature;BME280_humidity;BME280_pressure;Samples;Min_cycle;Max_cycle;Signal;HPM_P1;HPM_P2
2021/06/11 00:01:50;;;;;;;11.23;8.30;;;14.40;99.90;;;;;;5045140;28;20172;-59
2021/06/11 00:04:15;;;;;;;9.40;8.10;;;14.40;99.90;;;;;;5054096;28;20449;-59
2021/06/11 00:06:41;;;;;;;12.13;7.77;;;14.40;99.90;;;;;;5050902;28;20198;-60
2021/06/11 00:09:07;;;;;;;9.50;7.40;;;14.30;99.90;;;;;;5059243;28;20617;-58
2021/06/11 00:11:33;;;;;;;9.57;7.40;;;14.30;99.90;;;;;;5056044;28;20201;-58
2021/06/11 00:13:59;;;;;;;16.70;8.30;;;14.30;99.90;;;;;;5053430;28;20438;-60
2021/06/11 00:16:25;;;;;;;15.47;9.47;;;14.20;99.90;;;;;;5055472;28;20463;-58
2021/06/11 00:18:50;;;;;;;15.73;8.93;;;14.20;99.90;;;;;;5040685;28;20635;-60
2021/06/11 00:21:16;;;;;;;10.97;8.17;;;14.10;99.90;;;;;;5032229;28;20171;-61
2021/06/11 00:23:42;;;;;;;13.80;7.77;;;14.10;99.90;;;;;;5039716;28;20214;-61
2021/06/11 00:26:07;;;;;;;11.20;7.83;;;14.10;99.90;;;;;;5047155;28;20785;-59
2021/06/11 00:28:33;;;;;;;12.63;7.83;;;14.10;99.90;;;;;;5048170;28;20225;-60
2021/06/11 00:30:59;;;;;;;13.73;8.17;;;14.10;99.90;;;;;;5030862;28;20199;-59
2021/06/11 00:33:24;;;;;;;10.07;8.33;;;14.10;99.90;;;;;;5053458;28;20168;-60
2021/06/11 00:35:50;;;;;;;10.33;7.77;;;14.00;99.90;;;;;;5051547;28;20604;-60
2021/06/11 00:38:16;;;;;;;9.73;7.77;;;14.00;99.90;;;;;;5055204;28;20178;-60
2021/06/11 00:40:44;;;;;;;14.50;8.80;;;13.90;99.90;;;;;;5032239;28;20183;-60
2021/06/11 00:43:12;;;;;;;12.90;8.10;;;13.90;99.90;;;;;;5050098;28;20266;-61
2021/06/11 00:45:40;;;;;;;11.63;8.33;;;13.90;99.90;;;;;;5048779;28;20785;-60
2021/06/11 00:48:06;;;;;;;12.40;7.70;;;13.80;99.90;;;;;;5050370;28;20437;-60
2021/06/11 00:50:34;;;;;;;12.23;7.67;;;13.80;99.90;;;;;;5049986;28;20460;-60
2021/06/11 00:53:01;;;;;;;10.87;8.23;;;13.80;99.90;;;;;;5052869;28;20677;-60
2021/06/11 00:55:26;;;;;;;8.73;7.40;;;13.70;99.90;;;;;;5031320;28;20560;-60
2021/06/11 00:57:52;;;;;;;9.27;7.80;;;13.70;99.90;;;;;;5046948;28;20790;-60
2021/06/11 01:00:18;;;;;;;10.00;7.20;;;13.70;99.90;;;;;;5044984;28;20335;-60
2021/06/11 01:02:44;;;;;;;14.73;8.67;;;13.60;99.90;;;;;;5047891;28;20429;-59
2021/06/11 01:05:10;;;;;;;11.40;7.90;;;13.60;99.90;;;;;;5052109;28;20441;-60
2021/06/11 01:07:40;;;;;;;11.57;8.73;;;13.60;99.90;;;;;;5031917;28;20659;-60
2021/06/11 01:10:07;;;;;;;9.50;7.63;;;13.50;99.90;;;;;;5057071;28;20479;-59
2021/06/11 01:12:34;;;;;;;9.60;8.30;;;13.50;99.90;;;;;;5061361;28;20408;-59
2021/06/11 01:15:05;;;;;;;10.37;7.13;;;13.50;99.90;;;;;;5060619;28;20427;-60
2021/06/11 01:17:34;;;;;;;12.33;8.07;;;13.50;99.90;;;;;;5063176;28;21294;-61
2021/06/11 01:20:03;;;;;;;16.80;8.37;;;13.40;99.90;;;;;;5059875;28;20465;-60
2021/06/11 01:23:03;;;;;;;10.57;7.80;;;13.40;99.90;;;;;;5051738;28;20504;-60
2021/06/11 01:25:34;;;;;;;12.00;7.73;;;13.40;99.90;;;;;;5049547;28;20418;-60
2021/06/11 01:28:03;;;;;;;11.53;8.63;;;13.40;99.90;;;;;;5046009;28;20417;-60
2021/06/11 01:30:29;;;;;;;11.70;7.27;;;13.30;99.90;;;;;;5044840;28;20463;-60
2021/06/11 01:32:56;;;;;;;12.83;8.57;;;13.30;99.90;;;;;;5037308;28;20468;-59
2021/06/11 01:35:29;;;;;;;9.30;7.63;;;13.30;99.90;;;;;;5058843;28;20444;-60
2021/06/11 01:38:01;;;;;;;11.73;7.50;;;13.30;99.90;;;;;;5058705;28;20512;-59
2021/06/11 01:40:27;;;;;;;9.37;7.43;;;13.20;99.90;;;;;;5052255;28;20746;-61
2021/06/11 01:42:54;;;;;;;10.23;7.87;;;13.10;99.90;;;;;;5033673;28;20944;-60
2021/06/11 01:45:20;;;;;;;14.90;9.40;;;13.10;99.90;;;;;;5052831;28;20448;-60
2021/06/11 01:47:49;;;;;;;14.10;9.83;;;13.10;99.90;;;;;;5063033;28;20501;-60
2021/06/11 01:50:21;;;;;;;15.80;8.80;;;13.00;99.90;;;;;;5048567;28;20422;-60
2021/06/11 01:52:47;;;;;;;23.60;8.43;;;12.90;99.90;;;;;;5039084;28;20520;-60
2021/06/11 01:55:14;;;;;;;14.17;8.83;;;12.90;99.90;;;;;;5034551;28;20433;-59
2021/06/11 01:57:41;;;;;;;15.50;8.43;;;12.90;99.90;;;;;;5048703;28;20450;-60
2021/06/11 02:00:07;;;;;;;18.10;8.13;;;12.80;99.90;;;;;;5045078;28;20472;-60
2021/06/11 02:02:35;;;;;;;16.50;7.57;;;12.80;99.90;;;;;;5049525;28;20421;-59
2021/06/11 02:05:03;;;;;;;7.70;6.67;;;12.80;99.90;;;;;;5049535;28;20512;-60
2021/06/11 02:07:29;;;;;;;11.10;7.00;;;12.80;99.90;;;;;;5046807;28;20457;-60
2021/06/11 02:09:57;;;;;;;8.47;7.20;;;12.70;99.90;;;;;;5053595;28;20547;-60
2021/06/11 02:12:22;;;;;;;8.10;6.97;;;12.70;99.90;;;;;;5049489;28;20461;-60
2021/06/11 02:14:49;;;;;;;12.60;8.23;;;12.70;99.90;;;;;;5049397;28;20450;-60
2021/06/11 02:17:16;;;;;;;13.80;8.20;;;12.70;99.90;;;;;;5046907;28;20315;-60
2021/06/11 02:19:43;;;;;;;12.73;7.60;;;12.70;99.90;;;;;;5049213;28;20481;-60
2021/06/11 02:22:10;;;;;;;34.20;9.07;;;12.80;99.90;;;;;;5049966;28;21399;-59
2021/06/11 02:24:39;;;;;;;50.43;9.30;;;12.70;99.90;;;;;;5048066;28;20853;-61
2021/06/11 02:27:07;;;;;;;12.10;8.57;;;12.70;99.90;;;;;;5045779;28;20452;-60
2021/06/11 02:29:34;;;;;;;12.87;8.60;;;12.70;99.90;;;;;;5050342;28;20450;-60
2021/06/11 02:32:01;;;;;;;17.93;9.10;;;12.70;99.90;;;;;;5043604;28;20484;-59
2021/06/11 02:34:26;;;;;;;10.27;8.30;;;12.60;99.90;;;;;;5029278;28;20946;-60
2021/06/11 02:36:52;;;;;;;13.47;8.93;;;12.60;99.90;;;;;;5052726;28;20486;-59
2021/06/11 02:39:18;;;;;;;11.87;8.20;;;12.60;99.90;;;;;;5052015;28;20687;-60
2021/06/11 02:41:48;;;;;;;15.90;8.20;;;12.70;99.90;;;;;;5047352;28;20413;-59
2021/06/11 02:44:14;;;;;;;14.40;8.53;;;12.60;99.90;;;;;;5036058;28;20193;-60
2021/06/11 02:46:47;;;;;;;32.70;8.77;;;12.60;99.90;;;;;;5054984;28;20810;-60
2021/06/11 02:49:35;;;;;;;12.73;8.50;;;12.60;99.90;;;;;;5052556;28;20455;-60
2021/06/11 02:52:05;;;;;;;20.73;7.70;;;12.60;99.90;;;;;;5049531;28;20560;-61
2021/06/11 02:54:39;;;;;;;15.30;8.83;;;12.60;99.90;;;;;;5057791;28;20486;-60
2021/06/11 02:57:13;;;;;;;12.40;7.97;;;12.60;99.90;;;;;;5054613;28;20425;-60
2021/06/11 02:59:43;;;;;;;22.43;7.97;;;12.50;99.90;;;;;;5049310;28;20466;-60
2021/06/11 03:02:20;;;;;;;15.17;7.53;;;12.60;99.90;;;;;;5046780;28;20441;-59
2021/06/11 03:04:47;;;;;;;21.93;8.80;;;12.60;99.90;;;;;;5066992;28;20464;-60
2021/06/11 03:07:30;;;;;;;12.20;8.67;;;12.50;99.90;;;;;;5076896;28;20433;-61
2021/06/11 03:09:59;;;;;;;15.63;9.43;;;12.50;99.90;;;;;;5068369;28;20453;-62
2021/06/11 03:12:26;;;;;;;35.10;9.73;;;12.50;99.90;;;;;;5072717;28;20425;-60
2021/06/11 03:14:53;;;;;;;25.53;10.27;;;12.50;99.90;;;;;;5069497;28;20765;-59
2021/06/11 03:17:23;;;;;;;25.30;10.50;;;12.50;99.90;;;;;;5071049;28;20447;-60
2021/06/11 03:19:55;;;;;;;16.97;9.47;;;12.50;99.90;;;;;;5039803;28;20453;-60
2021/06/11 03:22:33;;;;;;;21.30;11.07;;;12.60;99.90;;;;;;5048332;28;20441;-58
2021/06/11 03:25:05;;;;;;;45.93;10.90;;;12.60;99.90;;;;;;5056596;28;20964;-60
2021/06/11 03:27:42;;;;;;;52.13;10.40;;;12.60;99.90;;;;;;5057881;28;20584;-60
2021/06/11 03:30:11;;;;;;;57.57;10.60;;;12.60;99.90;;;;;;5042716;28;20856;-60
2021/06/11 03:32:50;;;;;;;21.30;10.03;;;12.60;99.90;;;;;;5042548;28;20536;-59
2021/06/11 03:35:24;;;;;;;40.27;10.77;;;12.60;99.90;;;;;;5031455;28;20457;-60
2021/06/11 03:37:54;;;;;;;25.63;9.87;;;12.60;99.90;;;;;;5030282;28;20430;-60
2021/06/11 03:40:28;;;;;;;47.13;10.37;;;12.50;99.90;;;;;;5053214;28;20969;-60
2021/06/11 03:42:54;;;;;;;18.63;9.50;;;12.50;99.90;;;;;;5051539;28;20968;-60
2021/06/11 03:45:21;;;;;;;20.17;10.37;;;12.50;99.90;;;;;;5020864;28;20888;-59
2021/06/11 03:47:48;;;;;;;27.67;8.80;;;12.50;99.90;;;;;;5056132;28;20436;-59
2021/06/11 03:50:23;;;;;;;14.00;8.40;;;12.50;99.90;;;;;;5045051;28;20458;-61
2021/06/11 03:52:52;;;;;;;21.57;9.47;;;12.50;99.90;;;;;;5050829;28;20425;-60
2021/06/11 03:55:22;;;;;;;19.10;9.87;;;12.50;99.90;;;;;;5054617;28;20776;-59
2021/06/11 03:57:53;;;;;;;35.53;10.50;;;12.50;99.90;;;;;;5049806;28;20449;-59
2021/06/11 04:00:21;;;;;;;57.20;19.00;;;12.50;99.90;;;;;;5020294;28;20438;-61
2021/06/11 04:02:47;;;;;;;63.97;18.83;;;12.50;99.90;;;;;;5049322;28;20491;-57
2021/06/11 04:05:14;;;;;;;42.67;11.73;;;12.60;99.90;;;;;;5038907;28;20782;-59
2021/06/11 04:07:54;;;;;;;52.77;12.63;;;12.50;99.90;;;;;;5039807;28;21029;-60
2021/06/11 04:10:53;;;;;;;52.20;14.07;;;12.50;99.90;;;;;;5034451;28;20462;-60
2021/06/11 04:13:25;;;;;;;48.33;14.53;;;12.50;99.90;;;;;;5040754;28;20422;-56
2021/06/11 04:15:53;;;;;;;71.40;16.37;;;12.40;99.90;;;;;;5036871;28;21067;-58
2021/06/11 04:18:26;;;;;;;50.97;14.90;;;12.40;99.90;;;;;;5046747;28;20433;-58
2021/06/11 04:20:58;;;;;;;44.77;14.33;;;12.40;99.90;;;;;;5047927;28;20436;-60
2021/06/11 04:23:27;;;;;;;33.60;15.07;;;12.40;99.90;;;;;;5044160;28;20811;-60
2021/06/11 04:25:59;;;;;;;38.20;14.83;;;12.40;99.90;;;;;;5049826;28;20512;-59
2021/06/11 04:28:26;;;;;;;45.20;16.47;;;12.40;99.90;;;;;;5046926;28;20452;-59
2021/06/11 04:30:52;;;;;;;39.10;16.40;;;12.40;99.90;;;;;;5041694;28;20591;-60
2021/06/11 04:33:28;;;;;;;46.17;17.67;;;12.40;99.90;;;;;;5040113;28;20439;-60
2021/06/11 04:35:55;;;;;;;40.33;18.03;;;12.50;99.90;;;;;;5026442;28;20828;-61
2021/06/11 04:38:21;;;;;;;49.87;18.07;;;12.50;99.90;;;;;;5044079;28;20466;-60
2021/06/11 04:40:48;;;;;;;41.00;17.40;;;12.50;99.90;;;;;;5027561;28;20884;-60
2021/06/11 04:43:14;;;;;;;41.07;16.47;;;12.50;99.90;;;;;;5043439;28;20778;-60
2021/06/11 04:45:40;;;;;;;42.63;16.40;;;12.60;99.90;;;;;;5041080;28;21129;-60
2021/06/11 04:48:06;;;;;;;30.27;15.20;;;12.60;99.90;;;;;;5043496;28;20439;-60
2021/06/11 04:50:32;;;;;;;50.50;15.50;;;12.60;99.90;;;;;;5042665;28;20772;-60
2021/06/11 04:52:58;;;;;;;38.73;17.43;;;12.60;99.90;;;;;;5050226;28;20885;-60
2021/06/11 04:55:24;;;;;;;37.63;17.23;;;12.60;99.90;;;;;;5043635;28;20429;-58
2021/06/11 04:57:51;;;;;;;30.47;15.10;;;12.60;99.90;;;;;;5047099;28;20266;-59
2021/06/11 05:00:17;;;;;;;38.73;15.80;;;12.60;99.90;;;;;;5042680;28;20199;-62
2021/06/11 05:02:43;;;;;;;73.53;16.70;;;12.60;99.90;;;;;;5041190;28;20438;-62
2021/06/11 05:05:09;;;;;;;84.17;17.13;;;12.60;99.90;;;;;;5043760;28;20445;-58
2021/06/11 05:07:36;;;;;;;37.10;15.90;;;12.60;99.90;;;;;;5031222;28;20176;-59
2021/06/11 05:10:03;;;;;;;52.07;19.00;;;12.60;99.90;;;;;;5029500;28;20449;-59
2021/06/11 05:12:29;;;;;;;35.07;16.50;;;12.60;99.90;;;;;;5044082;28;20530;-62
2021/06/11 05:14:55;;;;;;;43.03;19.70;;;12.60;99.90;;;;;;5042938;28;20512;-59
2021/06/11 05:17:20;;;;;;;34.27;17.23;;;12.60;99.90;;;;;;5049369;28;20172;-59
2021/06/11 05:19:46;;;;;;;39.83;18.70;;;12.70;99.90;;;;;;5048135;28;20206;-59
2021/06/11 05:22:12;;;;;;;45.13;16.90;;;12.80;99.90;;;;;;5045683;28;20171;-59
2021/06/11 05:24:37;;;;;;;32.33;16.70;;;12.80;99.90;;;;;;5048013;28;20175;-59
2021/06/11 05:27:04;;;;;;;39.97;16.87;;;12.90;99.90;;;;;;5042804;28;20234;-57
2021/06/11 05:29:29;;;;;;;36.07;15.73;;;12.90;99.90;;;;;;5035135;28;20207;-58
2021/06/11 05:31:55;;;;;;;35.40;16.97;;;12.90;99.90;;;;;;5036794;28;21004;-58
2021/06/11 05:34:21;;;;;;;43.67;16.63;;;13.00;99.90;;;;;;5037749;28;23103;-58
2021/06/11 05:36:46;;;;;;;42.10;17.70;;;13.00;99.90;;;;;;5037648;28;20233;-58
2021/06/11 05:39:12;;;;;;;44.97;18.17;;;13.10;99.90;;;;;;5022538;28;20191;-60
2021/06/11 05:41:38;;;;;;;46.43;18.27;;;13.10;99.90;;;;;;5022869;28;20178;-60
2021/06/11 05:44:04;;;;;;;52.10;18.30;;;13.10;99.90;;;;;;5022772;28;20722;-60
2021/06/11 05:46:30;;;;;;;35.53;17.13;;;13.10;99.90;;;;;;5021544;28;20464;-59
2021/06/11 05:48:56;;;;;;;37.23;17.93;;;13.20;99.90;;;;;;5018039;28;20337;-58
2021/06/11 05:51:21;;;;;;;37.70;17.50;;;13.20;99.90;;;;;;5042613;28;20655;-58
2021/06/11 05:53:47;;;;;;;54.80;18.80;;;13.30;99.90;;;;;;5033032;28;20179;-61
2021/06/11 05:56:13;;;;;;;43.33;18.70;;;13.40;99.90;;;;;;5030950;28;20213;-59
2021/06/11 05:58:39;;;;;;;43.47;18.67;;;13.50;99.90;;;;;;5033710;28;20483;-58
2021/06/11 06:01:06;;;;;;;34.77;17.43;;;13.60;99.90;;;;;;5031826;28;20181;-60
2021/06/11 06:03:32;;;;;;;53.50;21.77;;;13.60;99.90;;;;;;5029516;28;20183;-59
2021/06/11 06:05:57;;;;;;;62.83;23.23;;;13.70;99.90;;;;;;5022171;28;20433;-62
2021/06/11 06:08:23;;;;;;;82.37;23.73;;;13.80;99.90;;;;;;5013825;28;20430;-59
2021/06/11 06:10:49;;;;;;;69.13;25.03;;;13.80;99.90;;;;;;5030690;28;20289;-59
2021/06/11 06:13:15;;;;;;;66.83;24.60;;;13.80;99.90;;;;;;5009768;28;20748;-58
2021/06/11 06:15:41;;;;;;;63.37;24.90;;;14.00;99.90;;;;;;5031295;28;20593;-60
2021/06/11 06:18:07;;;;;;;63.43;26.67;;;14.00;99.90;;;;;;5038488;28;20559;-61
2021/06/11 06:20:34;;;;;;;64.70;26.30;;;14.10;99.90;;;;;;5038240;28;20526;-57
2021/06/11 06:22:59;;;;;;;60.07;24.60;;;14.20;99.90;;;;;;5039230;28;20820;-58
2021/06/11 06:25:25;;;;;;;65.17;25.20;;;14.30;99.90;;;;;;5041055;28;20433;-59
2021/06/11 06:27:51;;;;;;;62.90;24.10;;;14.40;99.90;;;;;;5041247;28;20760;-58
2021/06/11 06:30:17;;;;;;;66.03;24.63;;;14.60;99.90;;;;;;5033244;28;21136;-58
2021/06/11 06:32:43;;;;;;;48.97;23.30;;;14.70;99.90;;;;;;5040350;28;20228;-58
2021/06/11 06:35:11;;;;;;;49.27;21.83;;;14.90;99.90;;;;;;5039137;28;20464;-60
2021/06/11 06:37:37;;;;;;;51.47;22.00;;;15.00;99.90;;;;;;5032869;28;20249;-61
2021/06/11 06:40:03;;;;;;;46.33;22.33;;;15.10;99.90;;;;;;5047998;28;20449;-58
2021/06/11 06:42:29;;;;;;;47.87;22.00;;;15.20;99.90;;;;;;5030385;28;20180;-61
2021/06/11 06:44:55;;;;;;;46.60;22.20;;;15.40;99.90;;;;;;5046499;28;20432;-59
2021/06/11 06:47:20;;;;;;;44.70;20.53;;;15.60;99.90;;;;;;5049281;28;20175;-59
2021/06/11 06:49:46;;;;;;;42.20;20.90;;;15.70;99.90;;;;;;5054847;28;20198;-61
2021/06/11 06:52:14;;;;;;;35.63;18.37;;;15.80;99.90;;;;;;5047929;28;20648;-58
2021/06/11 06:54:42;;;;;;;41.63;18.60;;;15.90;99.90;;;;;;5051806;28;20196;-60
2021/06/11 06:57:08;;;;;;;32.33;15.93;;;16.00;99.90;;;;;;5041338;28;20428;-60
2021/06/11 06:59:34;;;;;;;34.63;16.80;;;16.10;99.90;;;;;;5026546;28;21036;-60
2021/06/11 07:02:00;;;;;;;26.67;15.07;;;16.20;99.90;;;;;;5042751;28;20725;-60
2021/06/11 07:04:27;;;;;;;25.57;15.37;;;16.30;99.90;;;;;;5049387;28;20276;-60
2021/06/11 07:06:52;;;;;;;24.70;14.43;;;16.40;99.90;;;;;;5045848;28;20434;-60
2021/06/11 07:09:19;;;;;;;24.70;15.10;;;16.50;99.90;;;;;;5045988;28;20461;-60
2021/06/11 07:11:48;;;;;;;23.60;13.90;;;16.60;99.90;;;;;;5044381;28;20198;-61
2021/06/11 07:14:17;;;;;;;25.13;14.50;;;16.80;99.90;;;;;;5043610;28;20937;-59
2021/06/11 07:16:43;;;;;;;25.37;14.53;;;16.90;99.90;;;;;;5049463;28;20457;-59
2021/06/11 07:19:10;;;;;;;31.57;15.67;;;17.00;99.90;;;;;;5046030;28;20570;-60
2021/06/11 07:21:35;;;;;;;21.60;13.80;;;17.10;99.90;;;;;;5032073;28;20479;-62
2021/06/11 07:24:01;;;;;;;20.83;13.83;;;17.20;99.90;;;;;;5030506;28;20425;-61
2021/06/11 07:26:27;;;;;;;26.03;13.83;;;17.40;99.90;;;;;;5029642;28;20175;-62
2021/06/11 07:28:53;;;;;;;31.40;13.40;;;17.50;99.90;;;;;;5027560;28;20234;-61
2021/06/11 07:31:20;;;;;;;21.47;12.90;;;17.60;99.90;;;;;;5045640;28;20457;-60
2021/06/11 07:33:46;;;;;;;25.67;13.17;;;17.80;99.90;;;;;;5039562;28;20901;-60
2021/06/11 07:36:12;;;;;;;25.77;13.37;;;18.00;99.90;;;;;;5029163;28;20429;-59
2021/06/11 07:38:37;;;;;;;28.90;15.10;;;18.20;99.90;;;;;;5043699;28;20598;-59
2021/06/11 07:41:03;;;;;;;28.30;13.27;;;18.40;99.90;;;;;;5046727;28;20179;-60
2021/06/11 07:43:32;;;;;;;21.10;12.03;;;18.40;99.90;;;;;;5022698;28;20207;-61
2021/06/11 07:45:57;;;;;;;22.90;13.00;;;18.60;99.90;;;;;;5043262;28;20186;-62
2021/06/11 07:48:23;;;;;;;19.30;11.80;;;18.60;99.90;;;;;;5039108;28;20825;-62
2021/06/11 07:50:49;;;;;;;21.00;12.10;;;18.70;99.90;;;;;;5040603;28;20610;-58
2021/06/11 07:53:15;;;;;;;15.10;11.50;;;18.80;99.90;;;;;;5037282;28;20175;-56
2021/06/11 07:55:41;;;;;;;22.40;11.93;;;19.00;99.90;;;;;;5040590;28;21355;-60
2021/06/11 07:58:07;;;;;;;21.67;10.53;;;19.10;99.90;;;;;;5039567;28;20191;-59
2021/06/11 08:00:33;;;;;;;18.00;10.40;;;19.30;99.90;;;;;;5038215;28;20457;-59
2021/06/11 08:03:00;;;;;;;15.73;10.70;;;19.50;99.90;;;;;;5038442;28;20271;-59
2021/06/11 08:05:27;;;;;;;16.27;11.50;;;19.70;99.90;;;;;;5042761;28;20187;-61
2021/06/11 08:07:54;;;;;;;12.63;10.40;;;19.90;99.90;;;;;;5041273;28;20437;-60
2021/06/11 08:10:20;;;;;;;13.87;11.00;;;20.00;98.90;;;;;;5036976;28;20547;-60
2021/06/11 08:12:46;;;;;;;13.10;11.13;;;20.10;97.10;;;;;;5041793;28;20430;-59
2021/06/11 08:15:13;;;;;;;15.60;11.47;;;20.20;96.70;;;;;;5036798;28;20442;-60
2021/06/11 08:17:39;;;;;;;12.70;11.37;;;20.40;96.20;;;;;;5038901;28;20996;-58
2021/06/11 08:20:06;;;;;;;13.57;10.50;;;20.50;95.40;;;;;;5044952;28;20493;-58
2021/06/11 08:22:32;;;;;;;13.47;11.13;;;20.70;95.10;;;;;;5038799;28;20187;-60
2021/06/11 08:24:58;;;;;;;15.20;10.37;;;20.90;94.30;;;;;;5039945;28;20507;-59
2021/06/11 08:27:24;;;;;;;14.37;11.57;;;21.10;92.30;;;;;;5043760;28;20437;-58
2021/06/11 08:29:49;;;;;;;14.67;11.97;;;21.20;90.30;;;;;;5041797;28;20213;-60
2021/06/11 08:32:15;;;;;;;14.87;11.77;;;21.30;87.60;;;;;;5025805;28;20210;-60
2021/06/11 08:34:43;;;;;;;17.03;10.67;;;21.50;86.40;;;;;;5038474;28;20187;-58
2021/06/11 08:37:09;;;;;;;13.90;11.53;;;21.60;84.70;;;;;;5040025;28;20175;-59
2021/06/11 08:39:37;;;;;;;12.70;11.00;;;21.80;84.20;;;;;;5036905;28;20464;-59
2021/06/11 08:42:06;;;;;;;14.67;12.07;;;21.80;82.30;;;;;;5042651;28;20514;-59
2021/06/11 08:44:33;;;;;;;11.40;10.20;;;21.90;81.00;;;;;;5038683;28;20465;-60
2021/06/11 08:46:58;;;;;;;11.23;10.10;;;21.90;82.30;;;;;;5042614;28;20441;-60
2021/06/11 08:49:24;;;;;;;12.30;10.20;;;22.00;80.80;;;;;;5015333;28;20564;-61
2021/06/11 08:51:52;;;;;;;16.90;10.73;;;22.20;78.40;;;;;;5043245;28;20223;-61
2021/06/11 08:54:18;;;;;;;13.07;10.63;;;22.30;71.80;;;;;;5042949;28;20203;-59
2021/06/11 08:56:44;;;;;;;11.87;10.63;;;22.30;69.00;;;;;;5034019;28;20916;-59
2021/06/11 08:59:11;;;;;;;11.40;10.30;;;22.40;73.30;;;;;;5037853;28;20510;-56
2021/06/11 09:01:37;;;;;;;11.67;10.40;;;22.60;75.50;;;;;;5039340;28;20448;-58
2021/06/11 09:04:03;;;;;;;12.70;10.10;;;22.80;74.70;;;;;;5039416;28;20429;-59
2021/06/11 09:06:31;;;;;;;13.73;10.47;;;22.90;72.30;;;;;;5042903;28;20242;-59
2021/06/11 09:09:01;;;;;;;10.20;9.13;;;23.00;64.50;;;;;;5038963;28;20195;-59
2021/06/11 09:11:32;;;;;;;14.17;10.90;;;23.10;65.30;;;;;;5040082;28;20461;-59
2021/06/11 09:14:08;;;;;;;12.47;9.40;;;23.20;63.10;;;;;;5040613;28;20426;-59
2021/06/11 09:16:55;;;;;;;11.70;9.43;;;23.30;60.90;;;;;;5033731;28;21295;-59
2021/06/11 09:19:24;;;;;;;11.40;10.20;;;23.40;62.00;;;;;;5033091;28;20461;-58
2021/06/11 09:21:58;;;;;;;11.23;10.03;;;23.30;60.60;;;;;;5042478;28;20421;-61
2021/06/11 09:24:38;;;;;;;13.23;9.63;;;23.10;60.80;;;;;;5036121;28;20426;-60
2021/06/11 09:27:17;;;;;;;15.27;10.30;;;22.90;61.30;;;;;;5034449;28;20414;-58
2021/06/11 09:29:51;;;;;;;11.90;9.80;;;22.70;62.50;;;;;;5031893;28;20533;-58
2021/06/11 09:32:30;;;;;;;11.37;10.17;;;22.50;65.20;;;;;;5043127;28;21022;-59
2021/06/11 09:35:03;;;;;;;11.67;9.73;;;22.30;67.70;;;;;;5041367;28;20420;-58
2021/06/11 09:37:33;;;;;;;11.10;10.00;;;22.10;66.20;;;;;;5043090;28;20918;-58
2021/06/11 09:40:02;;;;;;;11.50;10.30;;;22.00;66.80;;;;;;5037361;28;20445;-59
2021/06/11 09:42:33;;;;;;;17.13;10.50;;;21.90;68.50;;;;;;5044230;28;20430;-58
2021/06/11 09:45:07;;;;;;;11.33;10.10;;;21.90;67.00;;;;;;5042340;28;20487;-59
2021/06/11 09:47:37;;;;;;;10.97;9.80;;;21.90;63.90;;;;;;5042824;28;20440;-59
2021/06/11 09:50:13;;;;;;;10.83;9.53;;;21.90;64.60;;;;;;5044522;28;20491;-59
2021/06/11 09:53:03;;;;;;;10.20;9.10;;;21.90;63.90;;;;;;5044652;28;21000;-59
2021/06/11 09:55:35;;;;;;;10.77;9.43;;;21.80;64.70;;;;;;5040550;28;21072;-59
2021/06/11 09:58:13;;;;;;;9.33;8.37;;;21.80;65.50;;;;;;5040105;28;20432;-60
2021/06/11 10:00:51;;;;;;;11.97;10.00;;;21.80;69.40;;;;;;5034256;28;20514;-60
2021/06/11 10:03:25;;;;;;;11.53;9.87;;;21.80;69.30;;;;;;5036605;28;20445;-60
2021/06/11 10:05:53;;;;;;;11.90;9.53;;;21.80;69.50;;;;;;5041916;28;20428;-60
2021/06/11 10:08:21;;;;;;;13.63;10.20;;;21.90;71.30;;;;;;5043096;28;20508;-58
2021/06/11 10:10:50;;;;;;;11.83;10.00;;;21.90;70.70;;;;;;5043321;28;20453;-59
2021/06/11 10:13:17;;;;;;;12.80;8.57;;;21.90;67.30;;;;;;5034363;28;20540;-60
2021/06/11 10:15:45;;;;;;;19.27;10.87;;;21.90;65.70;;;;;;5035633;28;20509;-58
2021/06/11 10:18:12;;;;;;;11.40;10.20;;;21.90;66.70;;;;;;5035904;28;20445;-59
2021/06/11 10:20:39;;;;;;;11.37;8.97;;;21.80;70.20;;;;;;5038833;28;21027;-62
2021/06/11 10:23:07;;;;;;;11.90;9.73;;;21.80;72.40;;;;;;5035566;28;20434;-59
2021/06/11 10:25:33;;;;;;;15.63;11.90;;;21.70;80.70;;;;;;5035608;28;20647;-60
2021/06/11 10:28:01;;;;;;;20.13;12.40;;;21.60;89.80;;;;;;5020571;28;20433;-62
2021/06/11 10:30:28;;;;;;;14.53;11.40;;;21.50;93.10;;;;;;5036452;28;20823;-58
2021/06/11 10:32:54;;;;;;;19.10;11.80;;;21.40;94.60;;;;;;5036434;28;20429;-59
2021/06/11 10:35:38;;;;;;;17.63;13.00;;;21.30;95.00;;;;;;5038796;28;20978;-60
2021/06/11 10:38:04;;;;;;;17.67;13.57;;;21.20;96.40;;;;;;5040386;28;20428;-61
2021/06/11 10:40:38;;;;;;;15.83;12.10;;;21.20;98.10;;;;;;5047900;28;20406;-59
2021/06/11 10:43:30;;;;;;;16.00;13.30;;;21.10;99.00;;;;;;5045889;28;20425;-59
2021/06/11 10:45:57;;;;;;;15.20;11.93;;;21.00;99.00;;;;;;5029325;28;20445;-59
2021/06/11 10:48:24;;;;;;;13.17;11.70;;;20.90;98.70;;;;;;5043752;28;20418;-58
2021/06/11 10:50:50;;;;;;;13.17;11.47;;;20.80;98.70;;;;;;5046237;28;20449;-59
2021/06/11 10:53:27;;;;;;;19.23;12.20;;;20.70;99.00;;;;;;5047324;28;20514;-59
2021/06/11 10:56:13;;;;;;;13.73;12.33;;;20.60;99.10;;;;;;5040044;28;20430;-60
2021/06/11 10:58:44;;;;;;;12.53;11.10;;;20.90;99.90;;;;;;5030784;28;20491;-60
2021/06/11 11:01:29;;;;;;;15.40;12.37;;;21.30;99.90;;;;;;5033424;28;20434;-57
2021/06/11 11:04:16;;;;;;;14.20;11.57;;;21.80;96.60;;;;;;5042753;28;20988;-60
2021/06/11 11:06:42;;;;;;;11.97;10.77;;;22.10;95.30;;;;;;5047364;28;20841;-58
2021/06/11 11:09:08;;;;;;;12.30;10.63;;;22.40;93.30;;;;;;5044437;28;20478;-59
2021/06/11 11:11:45;;;;;;;16.60;12.67;;;22.80;90.60;;;;;;5038118;28;20281;-61
2021/06/11 11:14:40;;;;;;;14.57;11.93;;;23.00;92.30;;;;;;5033787;28;20187;-60
2021/06/11 11:17:06;;;;;;;18.03;13.40;;;23.10;91.00;;;;;;5043180;28;20430;-60
2021/06/11 11:19:53;;;;;;;14.40;11.27;;;23.30;92.30;;;;;;5031212;28;20456;-59
2021/06/11 11:22:35;;;;;;;11.27;10.17;;;23.40;90.10;;;;;;5036850;28;20435;-59
2021/06/11 11:25:05;;;;;;;14.40;11.00;;;23.50;85.40;;;;;;5034842;28;20495;-60
2021/06/11 11:27:32;;;;;;;18.73;10.37;;;23.40;77.00;;;;;;5043320;28;20436;-59
2021/06/11 11:29:58;;;;;;;11.90;10.17;;;23.20;79.80;;;;;;5040580;28;21313;-61
2021/06/11 11:32:24;;;;;;;11.27;10.07;;;23.00;82.40;;;;;;5042286;28;20464;-60
2021/06/11 11:34:50;;;;;;;14.50;10.73;;;22.70;77.20;;;;;;5042146;28;20179;-61
2021/06/11 11:37:16;;;;;;;15.67;10.57;;;22.40;80.90;;;;;;5042233;28;20459;-59
2021/06/11 11:39:42;;;;;;;12.40;10.17;;;22.10;84.80;;;;;;5040063;28;21178;-60
2021/06/11 11:42:12;;;;;;;14.40;10.77;;;21.90;88.50;;;;;;5043463;28;20441;-59
2021/06/11 11:44:40;;;;;;;15.10;11.10;;;21.60;89.60;;;;;;5030068;28;20186;-60
2021/06/11 11:47:06;;;;;;;15.23;10.70;;;21.40;90.00;;;;;;5035690;28;20474;-59
2021/06/11 11:49:32;;;;;;;11.03;9.80;;;21.20;89.30;;;;;;5043633;28;20485;-59
2021/06/11 11:51:58;;;;;;;11.43;10.07;;;21.00;89.40;;;;;;5036749;28;20294;-59
2021/06/11 11:54:24;;;;;;;12.07;8.97;;;20.90;89.90;;;;;;5038085;28;20886;-58
2021/06/11 11:56:49;;;;;;;10.60;9.13;;;20.90;88.80;;;;;;5037625;28;20429;-58
2021/06/11 11:59:15;;;;;;;12.03;9.87;;;20.80;84.70;;;;;;5025672;28;20322;-59
2021/06/11 12:01:43;;;;;;;11.80;9.27;;;21.00;85.20;;;;;;5038640;28;20547;-59
2021/06/11 12:04:09;;;;;;;10.80;8.67;;;21.50;84.20;;;;;;5047211;28;20213;-59
2021/06/11 12:06:34;;;;;;;16.23;8.53;;;21.80;76.90;;;;;;5040251;28;20540;-57
2021/06/11 12:09:01;;;;;;;12.63;8.13;;;22.20;74.50;;;;;;5045383;28;21028;-58
2021/06/11 12:11:27;;;;;;;11.47;7.90;;;22.50;67.40;;;;;;5041755;28;20431;-58
2021/06/11 12:13:53;;;;;;;12.10;8.43;;;22.50;66.70;;;;;;5038239;28;20954;-59
2021/06/11 12:16:18;;;;;;;9.20;8.17;;;22.50;69.20;;;;;;5033494;28;20181;-60
2021/06/11 12:18:44;;;;;;;12.23;9.40;;;22.50;69.10;;;;;;5033016;28;20458;-59
2021/06/11 12:21:10;;;;;;;11.43;8.97;;;22.80;71.70;;;;;;5039570;28;20206;-59
2021/06/11 12:23:36;;;;;;;9.37;8.37;;;23.10;68.50;;;;;;5042433;28;20205;-60
2021/06/11 12:26:03;;;;;;;15.83;9.93;;;23.00;67.40;;;;;;5042255;28;20194;-59
2021/06/11 12:28:29;;;;;;;10.43;8.93;;;22.80;66.50;;;;;;5041620;28;20619;-59
2021/06/11 12:30:56;;;;;;;12.87;9.87;;;22.60;67.70;;;;;;5043241;28;20488;-60
2021/06/11 12:33:22;;;;;;;14.00;10.20;;;22.40;73.40;;;;;;5044096;28;20559;-59
2021/06/11 12:35:48;;;;;;;12.67;9.67;;;22.20;77.70;;;;;;5040166;28;20490;-60
2021/06/11 12:38:15;;;;;;;11.90;10.57;;;22.10;78.80;;;;;;5023766;28;20186;-59